Time;durP1;ratioP1;P1;durP2;ratioP2;P2;SDS_P1;SDS_P2;PMS_P1;PMS_P2;Temp;Humidity;BMP_temperature;BMP_pressure;BME280_temperature;BME280_humidity;BME280_pressure;Samples;Min_cycle;Max_cycle;Signal;HPM_P1;HPM_P2
2022/09/27 00:01:43;;;;;;;1.20;1.10;;;;;;;10.21;100.00;96408.31;5102024;28;20236;-67
2022/09/27 00:04:11;;;;;;;1.60;1.33;;;;;;;10.13;100.00;96410.00;5101768;28;20316;-67
2022/09/27 00:06:38;;;;;;;1.20;1.07;;;;;;;10.18;100.00;96397.22;5104500;28;20273;-67
2022/09/27 00:09:05;;;;;;;1.57;1.00;;;;;;;10.16;100.00;96388.63;5101809;28;20226;-68
2022/09/27 00:11:34;;;;;;;1.10;1.00;;;;;;;10.19;100.00;96398.88;5101623;28;20513;-67
2022/09/27 00:14:02;;;;;;;2.10;0.97;;;;;;;10.17;100.00;96396.41;5101790;28;20234;-67
2022/09/27 00:16:31;;;;;;;2.13;0.97;;;;;;;10.17;100.00;96398.19;5101827;28;20231;-67
2022/09/27 00:19:01;;;;;;;0.80;0.80;;;;;;;10.17;100.00;96393.75;5103401;28;20334;-68
2022/09/27 00:21:29;;;;;;;1.23;1.00;;;;;;;10.18;100.00;96386.66;5101693;28;20224;-68
2022/09/27 00:23:56;;;;;;;1.17;1.00;;;;;;;10.22;100.00;96393.31;5099782;28;20227;-68
2022/09/27 00:26:23;;;;;;;1.30;1.20;;;;;;;10.25;100.00;96390.38;5104184;28;20231;-68
2022/09/27 00:28:49;;;;;;;1.63;0.97;;;;;;;10.25;100.00;96387.72;5107443;28;20633;-68
2022/09/27 00:31:21;;;;;;;0.90;0.90;;;;;;;10.28;100.00;96393.53;5101395;28;20703;-68
2022/09/27 00:33:49;;;;;;;0.97;0.97;;;;;;;10.24;100.00;96386.06;5101202;28;20229;-68
2022/09/27 00:36:19;;;;;;;1.10;1.00;;;;;;;10.21;100.00;96386.38;5104016;28;20337;-68
2022/09/27 00:38:46;;;;;;;2.00;1.20;;;;;;;10.19;100.00;96378.59;5101147;28;20628;-68
2022/09/27 00:41:16;;;;;;;0.97;0.80;;;;;;;10.19;100.00;96377.75;5100928;28;20288;-68
2022/09/27 00:43:49;;;;;;;0.80;0.80;;;;;;;10.19;100.00;96372.47;5101618;28;20303;-67
2022/09/27 00:46:23;;;;;;;0.93;0.90;;;;;;;10.20;100.00;96376.75;5101726;28;20284;-68
2022/09/27 00:48:59;;;;;;;2.07;0.90;;;;;;;10.18;100.00;96369.00;5098386;28;20233;-68
2022/09/27 00:51:27;;;;;;;0.87;0.87;;;;;;;10.20;100.00;96379.41;5100917;28;20306;-68
2022/09/27 00:53:58;;;;;;;1.60;0.90;;;;;;;10.18;100.00;96376.94;5103437;28;20223;-67
2022/09/27 00:56:29;;;;;;;1.10;0.93;;;;;;;10.23;100.00;96387.06;5100675;28;20296;-68
2022/09/27 00:58:59;;;;;;;0.80;0.80;;;;;;;10.25;100.00;96383.28;5102690;28;20278;-67
2022/09/27 01:01:29;;;;;;;1.03;0.80;;;;;;;10.22;100.00;96377.47;5117839;28;20276;-68
2022/09/27 01:04:01;;;;;;;0.80;0.80;;;;;;;10.32;100.00;96372.97;5118013;28;20227;-67
2022/09/27 01:06:29;;;;;;;1.00;0.90;;;;;;;10.32;100.00;96378.25;5117672;28;20563;-67
2022/09/27 01:08:56;;;;;;;0.80;0.80;;;;;;;10.31;100.00;96371.31;5117983;28;20582;-67
2022/09/27 01:11:38;;;;;;;1.00;0.80;;;;;;;10.29;100.00;96373.25;5117905;28;20358;-68
2022/09/27 01:14:29;;;;;;;0.73;0.73;;;;;;;10.24;100.00;96370.22;5117575;28;20280;-67
2022/09/27 01:17:06;;;;;;;1.10;0.70;;;;;;;10.26;100.00;96370.91;5117470;28;20329;-67
2022/09/27 01:19:59;;;;;;;0.60;0.60;;;;;;;10.27;100.00;96372.59;5117740;28;20313;-68
2022/09/27 01:22:34;;;;;;;1.57;0.83;;;;;;;10.28;100.00;96374.25;5117718;28;20226;-68
2022/09/27 01:25:25;;;;;;;0.80;0.80;;;;;;;10.30;100.00;96370.47;5117681;28;20232;-68
2022/09/27 01:28:19;;;;;;;0.87;0.87;;;;;;;10.28;100.00;96366.31;5117241;28;20738;-68
2022/09/27 01:30:53;;;;;;;0.97;0.80;;;;;;;10.19;100.00;96367.19;5117660;28;20305;-68
2022/09/27 01:33:40;;;;;;;0.70;0.70;;;;;;;10.14;100.00;96370.28;5117576;28;20275;-68
2022/09/27 01:36:20;;;;;;;1.10;0.70;;;;;;;10.16;100.00;96370.94;5097609;28;20243;-68
2022/09/27 01:38:58;;;;;;;1.17;0.80;;;;;;;10.21;100.00;96359.97;5097607;28;20223;-68
2022/09/27 01:41:44;;;;;;;0.50;0.50;;;;;;;10.11;100.00;96360.03;5095968;28;20228;-68
2022/09/27 01:44:21;;;;;;;0.83;0.70;;;;;;;9.94;100.00;96357.28;5102685;28;20622;-68
2022/09/27 01:46:55;;;;;;;1.10;1.00;;;;;;;9.81;100.00;96356.78;5117273;28;20287;-67
2022/09/27 01:49:26;;;;;;;2.10;0.70;;;;;;;9.86;100.00;96357.16;5117304;28;20266;-68
2022/09/27 01:51:59;;;;;;;0.77;0.77;;;;;;;9.98;100.00;96356.00;5097484;28;20267;-68
2022/09/27 01:54:33;;;;;;;1.00;0.70;;;;;;;10.05;100.00;96355.34;5102805;28;20658;-69
2022/09/27 01:57:03;;;;;;;0.73;0.70;;;;;;;10.17;100.00;96364.72;5097779;28;20230;-67
2022/09/27 01:59:35;;;;;;;1.23;0.73;;;;;;;10.19;100.00;96362.75;5097374;28;20226;-67
2022/09/27 02:02:07;;;;;;;1.27;0.90;;;;;;;10.22;100.00;96366.91;5097378;28;20227;-67
2022/09/27 02:04:37;;;;;;;1.83;1.07;;;;;;;10.19;100.00;96361.91;5097350;28;20235;-67
2022/09/27 02:07:10;;;;;;;1.90;0.70;;;;;;;10.25;100.00;96371.88;5095342;28;20404;-67
2022/09/27 02:09:41;;;;;;;0.70;0.70;;;;;;;10.26;100.00;96368.25;5101409;28;20222;-67
2022/09/27 02:12:13;;;;;;;1.83;1.00;;;;;;;10.24;100.00;96367.59;5117206;28;20271;-67
2022/09/27 02:14:45;;;;;;;1.00;0.80;;;;;;;10.23;100.00;96368.56;5117071;28;20512;-68
2022/09/27 02:17:23;;;;;;;1.87;0.80;;;;;;;10.23;100.00;96368.56;5099175;28;20228;-67
2022/09/27 02:20:00;;;;;;;1.50;0.93;;;;;;;10.23;100.00;96379.13;5097232;28;20223;-66
2022/09/27 02:22:35;;;;;;;3.23;1.40;;;;;;;10.26;100.00;96381.47;5097246;28;20229;-66
2022/09/27 02:25:10;;;;;;;2.07;0.83;;;;;;;10.17;100.00;96382.34;5097382;28;20263;-66
2022/09/27 02:27:46;;;;;;;1.23;1.00;;;;;;;10.14;100.00;96391.41;5097037;28;20272;-66
2022/09/27 02:30:14;;;;;;;2.60;0.93;;;;;;;10.08;100.00;96380.56;5097144;28;20225;-66
2022/09/27 02:32:43;;;;;;;1.27;0.90;;;;;;;10.04;100.00;96390.59;5097205;28;20581;-66
2022/09/27 02:35:15;;;;;;;2.50;1.00;;;;;;;10.02;100.00;96396.94;5095234;28;20311;-65
2022/09/27 02:37:42;;;;;;;2.63;0.80;;;;;;;9.96;100.00;96402.81;5096954;28;20230;-65
2022/09/27 02:40:10;;;;;;;2.10;0.90;;;;;;;9.96;100.00;96398.38;5096972;28;20227;-65
2022/09/27 02:42:38;;;;;;;1.23;0.80;;;;;;;9.97;100.00;96393.94;5097104;28;20236;-64
2022/09/27 02:45:06;;;;;;;1.30;0.80;;;;;;;9.98;100.00;96391.13;5096906;28;20566;-65
2022/09/27 02:47:50;;;;;;;0.80;0.77;;;;;;;9.97;100.00;96392.13;5096833;28;20270;-65
2022/09/27 02:50:43;;;;;;;0.80;0.80;;;;;;;9.99;100.00;96392.81;5096905;28;20353;-65
2022/09/27 02:53:19;;;;;;;2.57;0.90;;;;;;;9.99;100.00;96397.25;5100909;28;20299;-64
2022/09/27 02:55:55;;;;;;;0.63;0.50;;;;;;;9.92;100.00;96396.19;5104628;28;20253;-64
2022/09/27 02:58:37;;;;;;;1.20;0.83;;;;;;;9.79;100.00;96403.56;5096983;28;20287;-64
2022/09/27 03:01:12;;;;;;;1.77;1.10;;;;;;;9.70;100.00;96412.31;5095208;28;20630;-64
2022/09/27 03:03:48;;;;;;;1.17;0.70;;;;;;;9.59;100.00;96417.75;5096714;28;20224;-64
2022/09/27 03:06:18;;;;;;;0.80;0.80;;;;;;;9.52;100.00;96414.88;5096897;28;20253;-64
2022/09/27 03:08:46;;;;;;;3.00;0.87;;;;;;;9.36;100.00;96419.06;5096778;28;20551;-64
2022/09/27 03:11:12;;;;;;;3.40;1.00;;;;;;;9.34;100.00;96421.81;5098500;28;20676;-65
2022/09/27 03:13:39;;;;;;;1.80;0.90;;;;;;;9.34;100.00;96420.97;5100493;28;20227;-65
2022/09/27 03:16:07;;;;;;;2.67;1.00;;;;;;;9.34;100.00;96426.25;5100369;28;20355;-64
2022/09/27 03:18:34;;;;;;;3.77;1.30;;;;;;;9.32;100.00;96429.06;5100370;28;20293;-64
2022/09/27 03:21:02;;;;;;;2.30;1.00;;;;;;;9.32;100.00;96438.75;5100338;28;20279;-64
2022/09/27 03:23:29;;;;;;;2.77;1.37;;;;;;;9.28;100.00;96442.63;5100297;28;20269;-64
2022/09/27 03:25:56;;;;;;;3.37;1.30;;;;;;;9.31;100.00;96447.63;5098330;28;20225;-65
2022/09/27 03:28:24;;;;;;;4.43;1.30;;;;;;;9.34;100.00;96442.06;5101563;28;20221;-64
2022/09/27 03:30:50;;;;;;;3.10;1.33;;;;;;;9.37;100.00;96447.09;5110946;28;20227;-65
2022/09/27 03:33:17;;;;;;;3.20;1.50;;;;;;;9.36;100.00;96448.06;5099990;28;20224;-65
2022/09/27 03:35:44;;;;;;;4.63;1.50;;;;;;;9.31;100.00;96450.28;5100053;28;20243;-65
2022/09/27 03:38:12;;;;;;;2.50;1.50;;;;;;;9.35;100.00;96444.56;5100001;28;20229;-65
2022/09/27 03:40:39;;;;;;;3.83;1.30;;;;;;;9.40;100.00;96449.41;5099879;28;20314;-65
2022/09/27 03:43:06;;;;;;;3.73;1.50;;;;;;;9.42;100.00;96452.78;5099812;28;20597;-64
2022/09/27 03:45:32;;;;;;;3.20;1.60;;;;;;;9.43;100.00;96454.44;5099966;28;20273;-65
2022/09/27 03:47:59;;;;;;;3.53;1.57;;;;;;;9.47;100.00;96446.09;5099858;28;20279;-65
2022/09/27 03:50:26;;;;;;;2.50;1.47;;;;;;;9.52;100.00;96445.66;5099761;28;20228;-65
2022/09/27 03:52:53;;;;;;;2.90;1.60;;;;;;;9.50;100.00;96451.09;5099532;28;20236;-65
2022/09/27 03:55:22;;;;;;;4.77;1.77;;;;;;;9.42;100.00;96452.78;5102714;28;20336;-65
2022/09/27 03:57:48;;;;;;;2.87;1.77;;;;;;;9.43;100.00;96449.16;5099549;28;20259;-65
2022/09/27 04:00:16;;;;;;;3.37;1.60;;;;;;;9.43;100.00;96457.06;5099501;28;20281;-65
2022/09/27 04:02:42;;;;;;;2.57;2.10;;;;;;;9.53;100.00;96449.97;5099423;28;20237;-65
2022/09/27 04:05:09;;;;;;;3.80;1.83;;;;;;;9.61;100.00;96450.13;5099582;28;20305;-65
2022/09/27 04:07:37;;;;;;;3.47;1.80;;;;;;;9.62;100.00;96454.41;5099072;28;20247;-65
2022/09/27 04:10:04;;;;;;;3.50;2.00;;;;;;;9.66;100.00;96458.44;5099362;28;20729;-65
2022/09/27 04:12:33;;;;;;;3.20;2.37;;;;;;;9.65;100.00;96459.38;5099231;28;20535;-65
2022/09/27 04:14:59;;;;;;;2.33;1.60;;;;;;;9.69;100.00;96458.16;5099404;28;20316;-65
2022/09/27 04:17:26;;;;;;;2.83;1.90;;;;;;;9.70;100.00;96463.28;5099030;28;20320;-65
2022/09/27 04:19:53;;;;;;;3.50;2.17;;;;;;;9.72;100.00;96463.16;5097364;28;20226;-65
2022/09/27 04:22:20;;;;;;;2.60;1.90;;;;;;;9.67;100.00;96460.09;5098882;28;20233;-65
2022/09/27 04:24:46;;;;;;;3.97;1.90;;;;;;;9.62;100.00;96451.78;5099010;28;20574;-65
2022/09/27 04:27:13;;;;;;;4.77;2.10;;;;;;;9.71;100.00;96466.75;5118618;28;20224;-65
2022/09/27 04:29:44;;;;;;;4.20;2.10;;;;;;;9.72;100.00;96468.44;5118782;28;20278;-65
2022/09/27 04:32:11;;;;;;;5.17;2.30;;;;;;;9.79;100.00;96469.53;5118786;28;20235;-65
2022/09/27 04:37:22;;;;;;;3.37;2.13;;;;;;;9.87;100.00;96467.00;5099159;28;20240;-66
2022/09/27 04:39:49;;;;;;;4.03;2.30;;;;;;;9.87;100.00;96467.84;5098850;28;20532;-66
2022/09/27 04:42:16;;;;;;;3.37;2.20;;;;;;;9.85;100.00;96471.59;5098691;28;20656;-66
2022/09/27 04:44:46;;;;;;;6.03;2.00;;;;;;;9.85;100.00;96469.78;5107661;28;20275;-66
2022/09/27 04:47:13;;;;;;;5.57;2.23;;;;;;;9.89;100.00;96480.88;5098645;28;20250;-66
2022/09/27 04:49:40;;;;;;;4.83;2.07;;;;;;;9.92;100.00;96480.63;5098615;28;20622;-66
2022/09/27 04:52:06;;;;;;;7.07;2.13;;;;;;;9.90;100.00;96493.13;5098421;28;20227;-66
2022/09/27 04:54:33;;;;;;;3.43;1.70;;;;;;;9.92;100.00;96489.34;5111729;28;20224;-66
2022/09/27 04:57:00;;;;;;;3.27;1.90;;;;;;;9.84;100.00;96494.50;5098274;28;20585;-66
2022/09/27 04:59:27;;;;;;;7.00;2.17;;;;;;;9.78;100.00;96489.78;5098190;28;20229;-66
2022/09/27 05:01:58;;;;;;;5.87;2.07;;;;;;;9.70;100.00;96491.47;5098326;28;20230;-66
2022/09/27 05:04:25;;;;;;;6.23;1.97;;;;;;;9.64;100.00;96489.38;5098318;28;20567;-66
2022/09/27 05:06:51;;;;;;;3.43;1.60;;;;;;;9.65;100.00;96499.81;5098164;28;20271;-66
2022/09/27 05:09:18;;;;;;;6.73;2.07;;;;;;;9.56;100.00;96505.06;5098204;28;20291;-66
2022/09/27 05:11:45;;;;;;;5.93;2.07;;;;;;;9.60;100.00;96506.47;5096456;28;20231;-66
2022/09/27 05:14:12;;;;;;;4.33;1.70;;;;;;;9.63;100.00;96506.19;5098102;28;20275;-66
2022/09/27 05:16:39;;;;;;;2.83;1.43;;;;;;;9.71;100.00;96508.94;5097746;28;20248;-66
2022/09/27 05:19:07;;;;;;;2.17;1.53;;;;;;;9.75;100.00;96523.53;5097848;28;20223;-66
2022/09/27 05:21:34;;;;;;;6.10;1.60;;;;;;;9.75;100.00;96528.81;5097837;28;20224;-66
2022/09/27 05:24:01;;;;;;;3.30;1.30;;;;;;;9.74;100.00;96527.97;5098088;28;20237;-66
2022/09/27 05:26:28;;;;;;;3.10;1.50;;;;;;;9.76;100.00;96533.09;5097849;28;20224;-66
2022/09/27 05:28:55;;;;;;;4.57;1.37;;;;;;;9.74;100.00;96535.06;5097782;28;20321;-66
2022/09/27 05:31:21;;;;;;;2.07;1.23;;;;;;;9.66;100.00;96548.13;5097778;28;20668;-66
2022/09/27 05:33:48;;;;;;;2.43;1.40;;;;;;;9.66;100.00;96548.13;5096884;28;20279;-66
2022/09/27 05:36:16;;;;;;;2.63;1.60;;;;;;;9.65;100.00;96555.19;5097647;28;20290;-67
2022/09/27 05:38:43;;;;;;;3.60;1.30;;;;;;;9.60;100.00;96559.22;5095876;28;20226;-67
2022/09/27 05:41:10;;;;;;;2.60;1.47;;;;;;;9.63;100.00;96564.22;5097569;28;20226;-68
2022/09/27 05:43:37;;;;;;;1.87;1.43;;;;;;;9.59;100.00;96563.66;5097864;28;20316;-65
2022/09/27 05:46:04;;;;;;;1.87;1.10;;;;;;;9.59;100.00;96574.19;5097721;28;20225;-66
2022/09/27 05:48:31;;;;;;;3.07;1.20;;;;;;;9.55;100.00;96572.00;5097409;28;20313;-66
2022/09/27 05:50:58;;;;;;;2.57;1.67;;;;;;;9.57;100.00;96573.53;5097375;28;20235;-65
2022/09/27 05:53:27;;;;;;;3.87;1.57;;;;;;;9.57;100.00;96575.31;5102165;28;20529;-66
2022/09/27 05:55:54;;;;;;;1.60;1.50;;;;;;;9.56;100.00;96573.66;5097240;28;20248;-66
2022/09/27 05:58:21;;;;;;;3.87;1.40;;;;;;;9.57;100.00;96573.53;5098969;28;20226;-66
2022/09/27 06:00:48;;;;;;;2.67;1.40;;;;;;;9.61;100.00;96579.34;5104016;28;20278;-67
2022/09/27 06:03:14;;;;;;;1.23;1.00;;;;;;;9.53;100.00;96595.00;5095589;28;20743;-67
2022/09/27 06:05:41;;;;;;;2.27;1.57;;;;;;;9.40;100.00;96586.53;5097401;28;20528;-67
2022/09/27 06:08:10;;;;;;;3.83;1.67;;;;;;;9.39;100.00;96595.41;5097329;28;20249;-67
2022/09/27 06:10:40;;;;;;;2.30;1.30;;;;;;;9.50;100.00;96606.69;5097187;28;20226;-68
2022/09/27 06:13:08;;;;;;;3.53;1.47;;;;;;;9.61;100.00;96603.91;5097509;28;20528;-67
2022/09/27 06:15:38;;;;;;;1.57;1.30;;;;;;;9.69;100.00;96600.59;5097253;28;20225;-67
2022/09/27 06:18:06;;;;;;;1.93;1.33;;;;;;;9.68;100.00;96612.94;5097255;28;20249;-68
2022/09/27 06:20:33;;;;;;;1.47;1.37;;;;;;;9.74;100.00;96609.75;5097246;28;20227;-67
2022/09/27 06:23:06;;;;;;;4.83;1.23;;;;;;;9.77;100.00;96613.91;5097354;28;20318;-67
2022/09/27 06:25:33;;;;;;;2.03;1.10;;;;;;;9.80;100.00;96619.75;5097043;28;20219;-67
2022/09/27 06:28:01;;;;;;;4.30;1.60;;;;;;;9.90;100.00;96619.78;5097027;28;20222;-67
2022/09/27 06:30:29;;;;;;;1.83;1.33;;;;;;;9.97;100.00;96616.41;5095321;28;20265;-67
2022/09/27 06:32:57;;;;;;;1.40;1.20;;;;;;;9.96;100.00;96624.47;5097113;28;20234;-67
2022/09/27 06:35:24;;;;;;;3.20;1.20;;;;;;;10.05;100.00;96615.78;5097088;28;20333;-67
2022/09/27 06:37:51;;;;;;;2.47;1.30;;;;;;;10.02;100.00;96613.34;5097012;28;20247;-67
2022/09/27 06:40:19;;;;;;;1.70;1.30;;;;;;;9.99;100.00;96626.84;5097019;28;20304;-67
2022/09/27 06:42:46;;;;;;;2.23;1.33;;;;;;;9.90;100.00;96622.41;5097093;28;20256;-67
2022/09/27 06:45:14;;;;;;;2.50;1.20;;;;;;;10.03;100.00;96620.34;5097276;28;20229;-65
2022/09/27 06:47:41;;;;;;;2.57;1.07;;;;;;;10.18;100.00;96624.22;5110506;28;20218;-67
2022/09/27 06:50:08;;;;;;;1.27;1.00;;;;;;;10.10;100.00;96632.03;5119187;28;20628;-67
2022/09/27 06:52:35;;;;;;;1.00;0.90;;;;;;;10.04;100.00;96630.75;5118873;28;20619;-66
2022/09/27 06:55:03;;;;;;;3.10;1.00;;;;;;;9.95;100.00;96639.50;5099377;28;20232;-67
2022/09/27 07:00:25;;;;;;;1.37;0.80;;;;;;;9.61;100.00;96645.28;5099409;28;20222;-66
2022/09/27 07:02:52;;;;;;;0.70;0.70;;;;;;;9.57;100.00;96654.44;5099243;28;20229;-66
2022/09/27 07:05:20;;;;;;;0.80;0.80;;;;;;;9.51;100.00;96654.97;5099144;28;20222;-65
2022/09/27 07:07:47;;;;;;;1.40;0.70;;;;;;;9.43;100.00;96660.91;5098926;28;20251;-65
2022/09/27 07:10:16;;;;;;;1.00;0.77;;;;;;;9.51;100.00;96671.63;5099396;28;20235;-65
2022/09/27 07:12:47;;;;;;;1.00;0.80;;;;;;;9.54;100.00;96665.25;5099280;28;20227;-65
2022/09/27 07:15:14;;;;;;;1.70;0.70;;;;;;;9.49;100.00;96662.19;5105826;28;20226;-65
2022/09/27 07:17:42;;;;;;;1.17;0.70;;;;;;;9.45;100.00;96666.06;5098922;28;20295;-65
2022/09/27 07:20:10;;;;;;;1.07;0.80;;;;;;;9.46;100.00;96667.72;5099235;28;20240;-64
2022/09/27 07:22:41;;;;;;;1.17;0.70;;;;;;;9.62;100.00;96674.13;5097206;28;20315;-65
2022/09/27 07:25:08;;;;;;;0.50;0.50;;;;;;;9.66;100.00;96675.53;5098867;28;20563;-64
2022/09/27 07:27:35;;;;;;;1.97;0.70;;;;;;;9.67;100.00;96676.41;5098703;28;20701;-65
2022/09/27 07:30:02;;;;;;;1.50;0.60;;;;;;;9.68;100.00;96684.16;5098646;28;20274;-65
2022/09/27 07:32:29;;;;;;;0.97;0.57;;;;;;;9.69;100.00;96685.00;5098600;28;20264;-64
2022/09/27 07:34:57;;;;;;;1.27;0.60;;;;;;;9.67;100.00;96690.41;5098742;28;20293;-65
2022/09/27 07:37:23;;;;;;;0.90;0.73;;;;;;;9.71;100.00;96693.59;5098543;28;20657;-65
2022/09/27 07:39:50;;;;;;;0.80;0.50;;;;;;;9.68;100.00;96699.16;5098895;28;20537;-65
2022/09/27 07:42:17;;;;;;;1.77;0.80;;;;;;;9.72;100.00;96695.28;5098375;28;20312;-65
2022/09/27 07:44:44;;;;;;;0.70;0.70;;;;;;;9.65;100.00;96700.25;5098422;28;20605;-65
2022/09/27 07:47:10;;;;;;;0.63;0.60;;;;;;;9.63;100.00;96706.63;5098374;28;20219;-64
2022/09/27 07:49:37;;;;;;;1.17;0.80;;;;;;;9.63;100.00;96704.00;5096809;28;20696;-65
2022/09/27 07:52:05;;;;;;;1.80;0.80;;;;;;;9.79;100.00;96705.16;5098362;28;20228;-65
2022/09/27 07:54:32;;;;;;;0.73;0.73;;;;;;;9.95;100.00;96707.25;5102694;28;20583;-64
2022/09/27 07:56:59;;;;;;;1.20;0.97;;;;;;;10.07;100.00;96711.47;5097639;28;20465;-65
2022/09/27 07:59:26;;;;;;;1.20;1.00;;;;;;;10.05;100.00;96710.78;5098339;28;20231;-65
2022/09/27 08:01:54;;;;;;;1.97;1.20;;;;;;;10.14;100.00;96716.06;5098106;28;20258;-65
2022/09/27 08:04:21;;;;;;;1.70;1.00;;;;;;;10.30;100.00;96707.59;5098260;28;20226;-65
2022/09/27 08:06:48;;;;;;;3.20;1.57;;;;;;;10.23;100.00;96715.25;5098079;28;20307;-65
2022/09/27 08:09:16;;;;;;;1.67;1.10;;;;;;;10.24;100.00;96713.44;5098246;28;20703;-65
2022/09/27 08:11:44;;;;;;;1.73;1.20;;;;;;;10.43;100.00;96718.72;5098048;28;20628;-65
2022/09/27 08:14:12;;;;;;;1.30;1.20;;;;;;;10.69;100.00;96723.31;5097874;28;20233;-68
2022/09/27 08:16:38;;;;;;;1.77;1.47;;;;;;;11.00;100.00;96718.69;5096047;28;20248;-66
2022/09/27 08:19:05;;;;;;;1.83;1.23;;;;;;;11.11;100.00;96721.13;5097953;28;20551;-66
2022/09/27 08:21:32;;;;;;;2.70;1.30;;;;;;;11.23;100.00;96722.63;5098105;28;20351;-67
2022/09/27 08:24:00;;;;;;;1.33;1.10;;;;;;;11.16;100.00;96745.34;5097725;28;20280;-67
2022/09/27 08:26:29;;;;;;;1.50;1.40;;;;;;;11.15;100.00;96741.03;5097521;28;20219;-66
2022/09/27 08:28:55;;;;;;;1.70;1.37;;;;;;;11.13;100.00;96746.44;5102495;28;20227;-66
2022/09/27 08:31:24;;;;;;;3.00;1.10;;;;;;;11.23;100.00;96749.06;5097557;28;20663;-65
2022/09/27 08:33:51;;;;;;;1.20;1.00;;;;;;;11.25;100.00;96749.78;5097681;28;20479;-66
2022/09/27 08:36:19;;;;;;;2.53;1.00;;;;;;;11.29;100.00;96740.56;5097268;28;20274;-66
2022/09/27 08:38:49;;;;;;;1.80;0.87;;;;;;;11.26;100.00;96760.19;5097371;28;20333;-65
2022/09/27 08:41:29;;;;;;;1.37;1.00;;;;;;;11.29;100.00;96756.44;5095618;28;20321;-67
2022/09/27 08:44:15;;;;;;;1.50;0.90;;;;;;;11.37;100.00;96759.22;5092978;28;20308;-66
2022/09/27 08:46:54;;;;;;;2.30;0.77;;;;;;;11.80;100.00;96767.44;5096450;28;20234;-66
2022/09/27 08:49:26;;;;;;;1.70;0.90;;;;;;;12.04;100.00;96757.94;5095772;28;20269;-67
2022/09/27 08:51:54;;;;;;;1.37;0.83;;;;;;;12.11;96.08;96755.56;5110429;28;20387;-67
2022/09/27 08:54:24;;;;;;;1.93;0.87;;;;;;;12.07;95.09;96754.19;5095876;28;20281;-66
2022/09/27 08:56:53;;;;;;;2.10;0.93;;;;;;;12.14;95.70;96763.19;5098015;28;20250;-66
2022/09/27 08:59:27;;;;;;;1.43;1.07;;;;;;;12.01;94.86;96768.00;5099055;28;20648;-66
2022/09/27 09:01:54;;;;;;;1.40;1.10;;;;;;;11.72;95.44;96760.22;5100048;28;20514;-66
2022/09/27 09:04:28;;;;;;;1.90;1.00;;;;;;;11.72;96.37;96775.25;5099270;28;20262;-66
2022/09/27 09:07:08;;;;;;;3.07;1.40;;;;;;;11.68;96.69;96766.75;5098742;28;20600;-67
2022/09/27 09:09:44;;;;;;;2.27;1.30;;;;;;;11.61;95.93;96768.31;5096167;28;20594;-66
2022/09/27 09:15:26;;;;;;;2.33;1.20;;;;;;;11.47;97.46;96760.00;5113076;28;20218;-66
2022/09/27 09:18:11;;;;;;;2.13;1.20;;;;;;;11.46;97.56;96768.91;5109579;28;20302;-67
2022/09/27 09:20:57;;;;;;;2.00;1.30;;;;;;;11.46;100.00;96768.91;5111742;28;20229;-66
2022/09/27 09:24:00;;;;;;;2.80;1.40;;;;;;;11.34;100.00;96776.19;5112593;28;20558;-66
2022/09/27 09:26:34;;;;;;;2.77;1.10;;;;;;;11.10;98.72;96767.06;5094393;28;20224;-67
2022/09/27 09:29:16;;;;;;;2.00;1.10;;;;;;;11.09;99.11;96765.38;5098680;28;20602;-67
2022/09/27 09:31:51;;;;;;;1.20;1.10;;;;;;;11.21;99.44;96769.53;5109668;28;20310;-67
2022/09/27 09:34:23;;;;;;;1.47;1.30;;;;;;;11.28;99.78;96775.94;5108752;28;20222;-67
2022/09/27 09:36:55;;;;;;;1.80;1.10;;;;;;;11.30;100.00;96777.44;5104456;28;20222;-67
2022/09/27 09:39:26;;;;;;;1.10;1.00;;;;;;;11.51;98.12;96767.53;5110288;28;20221;-66
2022/09/27 09:42:07;;;;;;;1.10;1.00;;;;;;;11.67;96.90;96769.56;5111158;28;20308;-66
2022/09/27 09:44:43;;;;;;;1.30;1.10;;;;;;;11.89;99.18;96766.53;5112826;28;20375;-66
2022/09/27 09:47:17;;;;;;;1.80;1.00;;;;;;;12.17;92.35;96768.19;5110395;28;20514;-66
2022/09/27 09:49:47;;;;;;;1.20;1.10;;;;;;;12.45;87.21;96761.88;5111525;28;20304;-67
2022/09/27 09:52:18;;;;;;;1.17;1.00;;;;;;;12.59;86.67;96758.72;5113645;28;20719;-67
2022/09/27 09:54:49;;;;;;;1.47;1.37;;;;;;;12.50;86.80;96755.16;5112932;28;20343;-67
2022/09/27 09:57:19;;;;;;;1.43;1.20;;;;;;;12.55;86.72;96752.03;5096795;28;20242;-67
2022/09/27 09:59:51;;;;;;;2.50;1.30;;;;;;;12.45;84.40;96754.75;5097768;28;20498;-68
2022/09/27 10:02:28;;;;;;;2.70;1.37;;;;;;;12.49;85.00;96739.38;5097188;28;20226;-68
2022/09/27 10:04:55;;;;;;;1.80;1.60;;;;;;;12.55;85.71;96734.34;5098328;28;20323;-68
2022/09/27 10:07:23;;;;;;;3.17;1.50;;;;;;;12.67;81.51;96742.88;5097324;28;20736;-68
2022/09/27 10:09:51;;;;;;;3.30;1.40;;;;;;;12.82;81.38;96736.03;5097806;28;20218;-68
2022/09/27 10:12:18;;;;;;;1.77;1.20;;;;;;;12.96;79.71;96728.38;5096996;28;20680;-68
2022/09/27 10:14:48;;;;;;;1.50;1.33;;;;;;;13.01;78.41;96730.59;5098524;28;20229;-69
2022/09/27 10:17:19;;;;;;;2.77;1.40;;;;;;;13.17;77.78;96736.00;5097582;28;20235;-69
2022/09/27 10:19:48;;;;;;;3.20;1.30;;;;;;;13.16;76.69;96744.94;5097995;28;20225;-70
2022/09/27 10:22:22;;;;;;;1.67;1.40;;;;;;;13.23;78.06;96744.19;5101119;28;20257;-68
2022/09/27 10:24:58;;;;;;;1.53;1.20;;;;;;;13.30;77.97;96741.72;5109717;28;20234;-69
2022/09/27 10:27:26;;;;;;;2.00;1.40;;;;;;;13.35;76.91;96739.44;5100701;28;20224;-68
2022/09/27 10:29:59;;;;;;;2.70;1.17;;;;;;;13.37;76.07;96742.75;5099951;28;20657;-68
2022/09/27 10:32:30;;;;;;;2.80;1.20;;;;;;;13.41;77.03;96739.66;5103825;28;20277;-69
2022/09/27 10:35:31;;;;;;;1.90;1.70;;;;;;;13.45;80.37;96741.00;5100550;28;20261;-69
2022/09/27 10:38:20;;;;;;;1.23;1.10;;;;;;;13.36;78.86;96741.09;5101071;28;20244;-69
2022/09/27 10:40:47;;;;;;;1.70;1.10;;;;;;;13.21;78.07;96737.38;5108169;28;20221;-69
2022/09/27 10:43:25;;;;;;;1.47;1.10;;;;;;;13.03;77.82;96737.38;5102057;28;20236;-70
2022/09/27 10:46:00;;;;;;;2.97;1.10;;;;;;;13.06;80.10;96738.91;5103656;28;20261;-69
2022/09/27 10:48:27;;;;;;;1.60;1.17;;;;;;;13.12;82.15;96743.59;5109976;28;20222;-69
2022/09/27 10:51:00;;;;;;;1.60;1.10;;;;;;;13.01;82.39;96742.03;5101898;28;20239;-69
2022/09/27 10:53:29;;;;;;;1.23;1.00;;;;;;;13.05;83.68;96742.53;5107874;28;20274;-69
2022/09/27 10:55:56;;;;;;;2.03;1.33;;;;;;;12.90;79.75;96741.41;5101797;28;20230;-69
2022/09/27 10:58:27;;;;;;;1.77;1.20;;;;;;;12.86;81.90;96734.75;5099931;28;20245;-69
2022/09/27 11:00:56;;;;;;;1.30;0.93;;;;;;;12.90;80.14;96728.16;5101744;28;20225;-69
2022/09/27 11:03:25;;;;;;;1.33;0.93;;;;;;;12.97;82.37;96724.75;5102012;28;20644;-69
2022/09/27 11:05:53;;;;;;;2.37;1.10;;;;;;;13.08;81.69;96721.03;5102371;28;20558;-69
2022/09/27 11:08:31;;;;;;;1.23;0.97;;;;;;;13.07;84.01;96719.38;5110224;28;20568;-69
2022/09/27 11:11:05;;;;;;;1.87;1.00;;;;;;;13.00;86.71;96719.16;5101660;28;20226;-69
2022/09/27 11:13:34;;;;;;;1.77;1.30;;;;;;;12.73;88.73;96713.09;5104363;28;20245;-69
2022/09/27 11:16:21;;;;;;;1.63;1.20;;;;;;;12.43;90.58;96714.34;5101602;28;20237;-69
2022/09/27 11:18:59;;;;;;;1.23;1.10;;;;;;;12.22;91.99;96715.63;5101345;28;20328;-69
2022/09/27 11:21:40;;;;;;;2.07;1.30;;;;;;;11.99;93.91;96719.66;5104106;28;20229;-69
2022/09/27 11:24:23;;;;;;;1.67;1.43;;;;;;;11.76;95.80;96707.81;5099640;28;20312;-68
2022/09/27 11:27:00;;;;;;;1.73;1.00;;;;;;;11.50;89.36;96704.16;5101764;28;20267;-70
2022/09/27 11:29:36;;;;;;;1.53;1.00;;;;;;;11.42;90.61;96701.38;5105487;28;20610;-68
2022/09/27 11:32:16;;;;;;;1.10;0.90;;;;;;;11.46;90.19;96700.13;5102382;28;20352;-71
2022/09/27 11:35:04;;;;;;;3.10;1.30;;;;;;;11.64;88.41;96696.59;5103165;28;20291;-68
2022/09/27 11:37:40;;;;;;;2.23;1.10;;;;;;;11.75;89.71;96687.63;5112072;28;20705;-69
2022/09/27 11:40:20;;;;;;;1.37;1.00;;;;;;;11.83;87.68;96682.41;5104528;28;20225;-69
2022/09/27 11:43:16;;;;;;;1.33;0.97;;;;;;;11.88;87.20;96690.75;5104946;28;20224;-70
2022/09/27 11:45:54;;;;;;;1.20;1.07;;;;;;;11.92;88.57;96697.44;5112347;28;20287;-69
2022/09/27 11:48:34;;;;;;;1.77;1.30;;;;;;;11.86;87.30;96725.31;5103679;28;20577;-70
2022/09/27 11:51:18;;;;;;;1.00;0.90;;;;;;;11.77;87.80;96741.25;5104239;28;20231;-70
2022/09/27 11:54:12;;;;;;;1.63;1.30;;;;;;;11.14;98.59;96752.59;5099301;28;20689;-71
2022/09/27 11:56:50;;;;;;;2.23;1.33;;;;;;;10.59;100.00;96771.84;5100743;28;20259;-72
2022/09/27 11:59:45;;;;;;;2.30;1.20;;;;;;;10.06;100.00;96778.44;5107102;28;20329;-67